Tiempo atmosférico en la estación meteorológica de Daroca, Zaragoza (779 m.)

Fecha
DESCASC
Temp. máxima en grados centígrados (hora)
DESCASC
Temp. mínima en grados centígrados (hora)
DESCASC
Temp. media en grados centígrados
DESCASC
Racha de viento máxima en m/sg (hora)
DESCASC
Velocidad máxima media en intervalos de 10 minutos(hora)
DESCASC
Precipitaciones diarias en mm
DESCASC
Precipitaciones de 00:00 a 06:00 en mm
DESCASC
Precipitaciones de 06:00 a 12:00 en mm
DESCASC
Precipitaciones de 12:00 a 18:00 en mm
DESCASC
Precipitaciones de 18:00 a 24:00 en mm
DESCASC
17-09-2017 22.1 (19:00) 2.6 (07:40) 12.4 7.5 (14:50) 3.33 (19:30) 0 0 0 0 0
16-09-2017 18.5 (16:30) 1.9 (08:00) 10.2 8.33 (14:20) 3.61 (18:50) 0 0 0 0 0
15-09-2017 14.9 (18:40) 8.1 (23:59) 11.5 7.22 (09:50) 3.61 (09:10) 0.6 0 0 0.6 0
14-09-2017 22.7 (13:30) 11.1 (00:00) 16.9 10 (18:30) 4.72 (17:00) 0 0 0 0 0
13-09-2017 31 (18:10) 8.7 (00:00) 19.8 8.06 (16:50) 3.33 (16:20) 0 0 0 0 0
12-09-2017 23.9 (18:00) 12.7 (00:00) 18.3 9.17 (14:00) 3.33 (13:50) 0 0 0 0 0
11-09-2017 26.9 (18:10) 9.1 (00:00) 18 10.83 (13:40) 5.28 (10:40) 0 0 0 0 0
10-09-2017 20.9 (17:40) 9.1 (00:00) 15 10 (16:00) 4.17 (15:50) 0.2 0 0.2 0 0
09-09-2017 17.8 (15:40) 9.8 (00:00) 13.8 9.44 (12:40) 3.89 (17:00) 1.6 0 0.2 0 1.4
08-09-2017 30.4 (17:40) 7.7 (00:00) 19 6.94 (17:50) 3.61 (17:50) 0 0 0 0 0
07-09-2017 26.5 (17:10) 9.8 (00:00) 18.2 7.5 (16:40) 3.89 (19:20) 0 0 0 0 0
06-09-2017 25.9 (14:10) 15.1 (00:00) 20.5 9.44 (16:40) 3.89 (15:40) 0 0 0 0 0
05-09-2017 31.4 (17:30) 13.5 (00:00) 22.4 7.78 (21:10) 3.61 (20:50) 0 0 0 0 0
04-09-2017 26.1 (16:20) 11.1 (00:00) 18.6 7.5 (14:30) 3.33 (11:40) 0 0 0 0 0
03-09-2017 29.2 (18:10) 10.3 (00:00) 19.8 8.33 (15:50) 3.61 (17:10) 0 0 0 0 0
02-09-2017 24.9 (18:10) 7.8 (00:00) 16.3 6.94 (13:50) 2.78 (13:50) 0 0 0 0 0
01-09-2017 22.4 (16:10) 12.7 (00:00) 17.5 8.89 (19:10) 4.44 (20:20) 1 0 0.8 0.2 0
31-08-2017 23 (16:20) 14.2 (00:00) 18.6 8.33 (19:10) 3.89 (19:30) 0 0 0 0 0
30-08-2017 25.8 (19:10) 16.2 (00:00) 21 6.94 (15:10) 3.33 (15:10) 0 0 0 0 0
29-08-2017 26.6 (15:00) 14.2 (00:00) 20.4 8.33 (18:40) 3.33 (16:10) 2.6 0 2.4 0.2 0
28-08-2017 29.2 (14:00) 15.4 (00:00) 22.3 17.5 (15:10) 6.94 (15:10) 15.4 0 1.2 6.2 8
27-08-2017 26.3 (12:40) 16.5 (00:00) 21.4 10.56 (14:00) 4.17 (14:10) 10.6 0 0 9 1.6
26-08-2017 34.4 (15:40) 21.8 (00:00) 28.1 8.89 (13:40) 4.17 (13:10) 0 0 0 0 0
25-08-2017 36.1 (16:00) 20.5 (00:00) 28.3 13.89 (17:50) 8.33 (18:00) 0 0 0 0 0
24-08-2017 36.2 (16:00) 17.2 (00:00) 26.7 10.56 (02:10) 5 (17:20) 0.4 0.4 0 0 0
23-08-2017 33 (17:30) 18.9 (00:00) 25.9 8.06 (14:50) 3.61 (14:30) 0.6 0 0 0.6 0
22-08-2017 37 (17:30) 19.3 (00:00) 28.1 7.5 (19:30) 3.33 (18:20) 3.2 0 0 0 3.2

Gráficas

Temp. máximas Temp. mínimas Temp. medias Precipitaciones Rachas de viento máximas Velocidades máximas media en intervalos de 10 minutos

Datos horarios

Fecha y hora oficial Temperatura (ºC) Velocidad del viento (km/h) Dirección del viento Racha (km/h) Dirección de racha Precipitación (mm) Presión (hPa) Tendencia (hPa) Humedad (%)
2017-09-20 23:00:00 13.3 2 Este 8 Nordeste 0 -- -- 34
2017-09-20 22:00:00 15.9 3 Nordeste 6 Nordeste 0 -- -- 29
2017-09-20 21:00:00 19.2 3 Este 8 Nordeste 0 -- -- 24
2017-09-20 20:00:00 22.2 4 Nordeste 19 Norte 0 -- -- 20
2017-09-20 19:00:00 25.1 8 Nordeste 19 Norte 0 -- -- 17
2017-09-20 18:00:00 27.1 5 Nordeste 19 Oeste 0 -- -- 17
2017-09-20 17:00:00 26.9 4 Sur 15 Sudoeste 0 -- -- 16
2017-09-20 16:00:00 26.1 5 Sudoeste 18 Oeste 0 -- -- 18
2017-09-20 15:00:00 24.5 6 Sur 21 Oeste 0 -- -- 20
2017-09-20 14:00:00 22.1 4 Sudoeste 13 Sudoeste 0 -- -- 24
2017-09-20 13:00:00 19.7 4 Sudoeste 12 Sudoeste 0 -- -- 24
2017-09-20 12:00:00 16.7 2 Noroeste 9 Oeste 0 -- -- 41
2017-09-20 11:00:00 13 3 Oeste 9 Noroeste 0 -- -- 54
2017-09-20 10:00:00 9 0 Calma 3 Sudoeste 0 -- -- 64
2017-09-20 09:00:00 4.9 2 Nordeste 4 Nordeste 0 -- -- 80
2017-09-20 08:00:00 3.4 0 Calma 5 Nordeste 0 -- -- 83
2017-09-20 07:00:00 4 0 Calma 4 Nordeste 0 -- -- 81
2017-09-20 06:00:00 4.5 0 Calma 4 Nordeste 0 -- -- 80
2017-09-20 05:00:00 5.3 0 Calma 4 Nordeste 0 -- -- 77
2017-09-20 04:00:00 6 0 Calma 6 Este 0 -- -- 76
2017-09-20 03:00:00 6.7 3 Nordeste 8 Nordeste 0 -- -- 73
2017-09-20 02:00:00 7.5 2 Sudeste 7 Este 0 -- -- 70
2017-09-20 01:00:00 8.8 2 Nordeste 5 Norte 0 -- -- 66
2017-09-20 00:00:00 10.3 0 Calma 5 Norte 0 -- -- 61
2017-09-19 23:00:00 12.1 0 Calma 4 Este 0 -- -- 57
2017-09-19 22:00:00 13.4 0 Calma 8 Nordeste 0 -- -- 53
2017-09-19 21:00:00 15.2 3 Nordeste 22 Nordeste 0 -- -- 48
2017-09-19 20:00:00 17 10 Nordeste 23 Nordeste 0 -- -- 42
2017-09-19 19:00:00 19.1 12 Nordeste 30 Nordeste 0 -- -- 37
2017-09-19 18:00:00 21.6 10 Nordeste 24 Nordeste 0 -- -- 32
2017-09-19 17:00:00 22.5 9 Nordeste 28 Noroeste 0 -- -- 28
2017-09-19 16:00:00 21.6 8 Oeste 25 Sudoeste 0 -- -- 30
2017-09-19 15:00:00 20.5 9 Oeste 24 Norte 0 -- -- 36
2017-09-19 14:00:00 19.2 6 Norte 26 Norte 0 -- -- 38
2017-09-19 13:00:00 17.5 7 Oeste 23 Sudoeste 0 -- -- 44
2017-09-19 12:00:00 15.8 6 Oeste 22 Oeste 0 -- -- 55
2017-09-19 11:00:00 14 0 Calma 10 Sudoeste 0 -- -- 64
2017-09-19 10:00:00 12.1 3 Norte 8 Noroeste 0 -- -- 71
2017-09-19 09:00:00 10.9 3 Oeste 8 Oeste 0 -- -- 81
2017-09-19 08:00:00 10.9 0 Calma 6 Oeste 0 -- -- 82
2017-09-19 07:00:00 10.8 0 Calma 4 Oeste 0 -- -- 82
2017-09-19 06:00:00 10.4 0 Calma 6 Sur 0 -- -- 84
2017-09-19 05:00:00 10.1 0 Calma 7 Nordeste 0 -- -- 85
2017-09-19 04:00:00 9.7 3 Nordeste 6 Nordeste 0 -- -- 84
2017-09-19 03:00:00 9.2 0 Calma 6 Este 0 -- -- 84
2017-09-19 02:00:00 9.4 2 Este 10 Este 0 -- -- 83
2017-09-19 01:00:00 10.5 2 Nordeste 5 Norte 0 -- -- 79
2017-09-19 00:00:00 11.2 2 Nordeste 7 Nordeste 0 -- -- 76
2017-09-18 23:00:00 12.4 0 Calma 6 Este 0 -- -- 71
2017-09-18 22:00:00 13.8 2 Nordeste 7 Norte 0 -- -- 66
2017-09-18 21:00:00 15.6 0 Calma 15 Norte 0 -- -- 61
2017-09-18 20:00:00 17.2 9 Nordeste 23 Nordeste 0 -- -- 56
2017-09-18 19:00:00 19.4 6 Nordeste 24 Nordeste 0 -- -- 49
2017-09-18 18:00:00 20.5 14 Nordeste 27 Nordeste 0 -- -- 42
2017-09-18 17:00:00 22.7 12 Norte 25 Oeste 0 -- -- 33
2017-09-18 16:00:00 21.3 10 Noroeste 33 Sudoeste 0 -- -- 37
2017-09-18 15:00:00 20.5 11 Oeste 29 Oeste 0 -- -- 38
2017-09-18 14:00:00 20.1 7 Norte 25 Sudoeste 0 -- -- 38
2017-09-18 13:00:00 18.2 15 Oeste 29 Oeste 0 -- -- 43
2017-09-18 12:00:00 16.7 13 Oeste 28 Sudoeste 0 -- -- 46
2017-09-18 11:00:00 13.3 6 Sudoeste 14 Sudoeste 0 -- -- 52
2017-09-18 10:00:00 9.2 0 Calma 9 Oeste 0 -- -- 63
2017-09-18 09:00:00 6.9 0 Calma 6 Este 0 -- -- 72
2017-09-18 08:00:00 5.9 2 Nordeste 5 Nordeste 0 -- -- 74
2017-09-18 07:00:00 6.2 0 Calma 4 Nordeste 0 -- -- 74
2017-09-18 06:00:00 6.2 0 Calma 4 Nordeste 0 -- -- 72
2017-09-18 05:00:00 6.5 2 Nordeste 7 Nordeste 0 -- -- 72
2017-09-18 04:00:00 6.7 0 Calma 6 Nordeste 0 -- -- 71
2017-09-18 03:00:00 7.7 2 Este 6 Sudeste 0 -- -- 67
2017-09-18 02:00:00 9 3 Este 7 Este 0 -- -- 64
2017-09-18 01:00:00 10.4 0 Calma 5 Sudoeste 0 -- -- 60
2017-09-18 00:00:00 11.1 3 Nordeste 7 Norte 0 -- -- 57
2017-09-17 23:00:00 12 0 Calma 5 Nordeste 0 -- -- 55
2017-09-17 22:00:00 13.7 0 Calma 5 Nordeste 0 -- -- 50
2017-09-17 21:00:00 15.6 4 Nordeste 17 Nordeste 0 -- -- 44
2017-09-17 20:00:00 17.8 7 Nordeste 22 Nordeste 0 -- -- 39
2017-09-17 19:00:00 22.1 8 Oeste 17 Sudoeste 0 -- -- 22
2017-09-17 18:00:00 21.5 6 Sudoeste 17 Oeste 0 -- -- 25
2017-09-17 17:00:00 21.4 7 Oeste 15 Oeste 0 -- -- 25
2017-09-17 16:00:00 21.3 6 Oeste 26 Sudoeste 0 -- -- 27
2017-09-17 15:00:00 22 9 Nordeste 27 Norte 0 -- -- 26
2017-09-17 14:00:00 20.7 5 Sudoeste 18 Sudoeste 0 -- -- 26
2017-09-17 13:00:00 19.5 5 Oeste 15 Sudoeste 0 -- -- 29
2017-09-17 12:00:00 17 3 Sudeste 9 Oeste 0 -- -- 35
2017-09-17 11:00:00 13.6 3 Noroeste 10 Noroeste 0 -- -- 47
2017-09-17 10:00:00 9.5 3 Oeste 6 Oeste 0 -- -- 64
2017-09-17 09:00:00 4.9 0 Calma 5 Este 0 -- -- 80
2017-09-17 08:00:00 2.8 0 Calma 5 Nordeste 0 -- -- 85
2017-09-17 07:00:00 2.7 0 Calma 5 Nordeste 0 -- -- 84
2017-09-17 06:00:00 3.1 0 Calma 5 Nordeste 0 -- -- 82
2017-09-17 05:00:00 3.7 0 Calma 6 Norte 0 -- -- 81
2017-09-17 04:00:00 4.4 0 Calma 8 Nordeste 0 -- -- 80
2017-09-17 03:00:00 4.6 0 Calma 6 Nordeste 0 -- -- 80
2017-09-17 02:00:00 5.3 3 Nordeste 6 Este 0 -- -- 77
2017-09-17 01:00:00 6.2 2 Nordeste 6 Nordeste 0 -- -- 74
2017-09-17 00:00:00 7.1 3 Este 6 Norte 0 -- -- 71
2017-09-16 23:00:00 8.9 2 Nordeste 5 Este 0 -- -- 66
2017-09-16 22:00:00 10.7 0 Calma 10 Nordeste 0 -- -- 61
2017-09-16 21:00:00 12.1 6 Nordeste 22 Norte 0 -- -- 58
2017-09-16 20:00:00 14.5 10 Nordeste 23 Nordeste 0 -- -- 43
2017-09-16 19:00:00 15.7 13 Nordeste 28 Nordeste 0 -- -- 42
2017-09-16 18:00:00 17.3 6 Norte 21 Norte 0 -- -- 32
2017-09-16 17:00:00 17.7 8 Nordeste 28 Sudoeste 0 -- -- 31
2017-09-16 16:00:00 17.5 8 Oeste 28 Sudoeste 0 -- -- 32
2017-09-16 15:00:00 17 8 Oeste 30 Sudoeste 0 -- -- 35
2017-09-16 14:00:00 15.5 9 Oeste 24 Oeste 0 -- -- 40
2017-09-16 13:00:00 14.6 11 Sudoeste 21 Oeste 0 -- -- 43
2017-09-16 12:00:00 12.8 7 Sudoeste 15 Sudoeste 0 -- -- 52
2017-09-16 11:00:00 10.5 3 Sudoeste 9 Sudoeste 0 -- -- 65
2017-09-16 10:00:00 7.3 0 Calma 3 Sur 0 -- -- 77
2017-09-16 09:00:00 3.6 0 Calma 5 Nordeste 0 -- -- 86
2017-09-16 08:00:00 1.9 0 Calma 5 Este 0 -- -- 88
2017-09-16 07:00:00 2.4 3 Nordeste 6 Nordeste 0 -- -- 86
2017-09-16 06:00:00 2.8 0 Calma 8 Nordeste 0 -- -- 87
2017-09-16 05:00:00 3.4 2 Nordeste 6 Nordeste 0 -- -- 86
2017-09-16 04:00:00 4 3 Nordeste 6 Este 0 -- -- 85
2017-09-16 03:00:00 4.6 0 Calma 5 Nordeste 0 -- -- 82
2017-09-16 02:00:00 5.7 0 Calma 4 Sudeste 0 -- -- 81
2017-09-16 01:00:00 7 0 Calma 6 Este 0 -- -- 77
2017-09-16 00:00:00 8.1 4 Nordeste 8 Este 0 -- -- 73
2017-09-15 23:00:00 9.5 0 Calma 10 Norte 0 -- -- 68
2017-09-15 22:00:00 11.2 0 Calma 12 Nordeste 0 -- -- 62
2017-09-15 21:00:00 12.6 5 Nordeste 18 Norte 0 -- -- 57
2017-09-15 20:00:00 14.1 5 Norte 14 Nordeste 0 -- -- 52
2017-09-15 19:00:00 14.9 8 Nordeste 19 Nordeste 0 -- -- 49
2017-09-15 18:00:00 14.2 6 Nordeste 18 Nordeste 0.2 -- -- 55
2017-09-15 17:00:00 13 5 Oeste 14 Oeste 0.2 -- -- 67
2017-09-15 16:00:00 12.5 0 Calma 12 Noroeste 0 -- -- 64
2017-09-15 15:00:00 12.3 4 Nordeste 12 Este 0 -- -- 64
2017-09-15 14:00:00 11.7 3 Nordeste 17 Noroeste 0 -- -- 65
2017-09-15 13:00:00 10.7 3 Norte 15 Norte 0.2 -- -- 76
2017-09-15 12:00:00 10.7 6 Noroeste 20 Nordeste 0 -- -- 74
2017-09-15 11:00:00 10.7 8 Norte 24 Norte 0 -- -- 69
2017-09-15 10:00:00 10.4 12 Nordeste 26 Norte 0 -- -- 70
2017-09-15 09:00:00 10.9 7 Nordeste 22 Norte 0 -- -- 67
2017-09-15 08:00:00 11 8 Nordeste 19 Nordeste 0 -- -- 64
2017-09-15 07:00:00 11.4 5 Nordeste 19 Nordeste 0 -- -- 62
2017-09-15 06:00:00 11.6 4 Nordeste 12 Nordeste 0 -- -- 55
2017-09-15 05:00:00 11.5 0 Calma 7 Norte 0 -- -- 59
2017-09-15 04:00:00 11.1 0 Calma 4 Noroeste 0 -- -- 63
2017-09-15 03:00:00 10.4 2 Noroeste 8 Nordeste 0 -- -- 69
2017-09-15 02:00:00 10.6 3 Nordeste 10 Este 0 -- -- 69
2017-09-15 01:00:00 11.1 0 Calma 14 Nordeste 0 -- -- 66
2017-09-15 00:00:00 11.8 4 Nordeste 10 Nordeste 0 -- -- 63
2017-09-14 23:00:00 12.5 0 Calma 6 Nordeste 0 -- -- 63
2017-09-14 22:00:00 13.2 2 Este 13 Nordeste 0 -- -- 61
2017-09-14 21:00:00 13.9 9 Nordeste 28 Norte 0 -- -- 59
2017-09-14 20:00:00 15.4 11 Nordeste 33 Este 0 -- -- 54
2017-09-14 19:00:00 17 12 Nordeste 36 Este 0 -- -- 50
2017-09-14 18:00:00 19.5 16 Nordeste 31 Este 0 -- -- 48
2017-09-14 17:00:00 20.8 17 Nordeste 34 Este 0 -- -- 47
2017-09-14 16:00:00 21.7 14 Este 36 Nordeste 0 -- -- 47
2017-09-14 15:00:00 22 12 Nordeste 31 Nordeste 0 -- -- 49
2017-09-14 14:00:00 20.9 17 Nordeste 32 Nordeste 0 -- -- 56
2017-09-14 13:00:00 22.5 6 Nordeste 26 Nordeste 0 -- -- 50
2017-09-14 12:00:00 22.4 11 Nordeste 25 Norte 0 -- -- 50
2017-09-14 11:00:00 21.6 9 Norte 22 Norte 0 -- -- 40
2017-09-14 10:00:00 17.2 2 Oeste 6 Sudoeste 0 -- -- 56
2017-09-14 09:00:00 13.1 0 Calma 4 Nordeste 0 -- -- 67
2017-09-14 08:00:00 11.1 2 Este 5 Este 0 -- -- 71
2017-09-14 07:00:00 11.9 2 Nordeste 6 Sudeste 0 -- -- 69
2017-09-14 06:00:00 12.6 3 Nordeste 8 Este 0 -- -- 67
2017-09-14 05:00:00 13.1 0 Calma 8 Nordeste 0 -- -- 64
2017-09-14 04:00:00 13.6 2 Este 6 Este 0 -- -- 61
2017-09-14 03:00:00 14.1 2 Este 9 Este 0 -- -- 58
2017-09-14 02:00:00 14.9 3 Nordeste 7 Nordeste 0 -- -- 57
2017-09-14 01:00:00 15.7 2 Este 8 Este 0 -- -- 55
2017-09-14 00:00:00 17.2 2 Nordeste 8 Nordeste 0 -- -- 52
2017-09-13 23:00:00 18.9 3 Nordeste 7 Nordeste 0 -- -- 48
2017-09-13 22:00:00 20.9 3 Nordeste 7 Nordeste 0 -- -- 44
2017-09-13 21:00:00 23.9 4 Este 8 Nordeste 0 -- -- 38
2017-09-13 20:00:00 28.4 4 Nordeste 12 Oeste 0 -- -- 29
2017-09-13 19:00:00 30.9 2 Noroeste 15 Oeste 0 -- -- 22
2017-09-13 18:00:00 30.8 4 Noroeste 23 Oeste 0 -- -- 23
2017-09-13 17:00:00 30.4 8 Oeste 29 Oeste 0 -- -- 23
2017-09-13 16:00:00 30.3 5 Sudeste 22 Sudoeste 0 -- -- 23
2017-09-13 15:00:00 29.3 5 Sudeste 18 Oeste 0 -- -- 26
2017-09-13 14:00:00 27.4 6 Sudoeste 16 Sudoeste 0 -- -- 30
2017-09-13 13:00:00 25.9 3 Sudeste 15 Sudeste 0 -- -- 33
2017-09-13 12:00:00 24 3 Oeste 8 Sur 0 -- -- 35
2017-09-13 11:00:00 20.5 0 Calma 8 Oeste 0 -- -- 42
2017-09-13 10:00:00 15.5 3 Sudoeste 5 Sudoeste 0 -- -- 55
2017-09-13 09:00:00 10.8 0 Calma 8 Nordeste 0 -- -- 74
2017-09-13 08:00:00 8.8 3 Este 8 Este 0 -- -- 80
2017-09-13 07:00:00 9.3 0 Calma 8 Nordeste 0 -- -- 79
2017-09-13 06:00:00 9.3 2 Este 6 Nordeste 0 -- -- 79
2017-09-13 05:00:00 9.8 2 Este 5 Nordeste 0 -- -- 78
2017-09-13 04:00:00 10.4 3 Nordeste 6 Nordeste 0 -- -- 76
2017-09-13 03:00:00 11.2 0 Calma 8 Nordeste 0 -- -- 74
2017-09-13 02:00:00 11.7 0 Calma 6 Este 0 -- -- 72
2017-09-13 01:00:00 12.2 0 Calma 6 Nordeste 0 -- -- 70
2017-09-13 00:00:00 13.1 3 Nordeste 8 Este 0 -- -- 67
2017-09-12 23:00:00 14.6 0 Calma 5 Nordeste 0 -- -- 62
2017-09-12 22:00:00 16.3 0 Calma 6 Este 0 -- -- 57
2017-09-12 21:00:00 17.9 3 Nordeste 15 Norte 0 -- -- 52
2017-09-12 20:00:00 19.9 9 Nordeste 24 Nordeste 0 -- -- 47
2017-09-12 19:00:00 21.8 10 Nordeste 22 Nordeste 0 -- -- 43
2017-09-12 18:00:00 23.9 4 Nordeste 23 Sudoeste 0 -- -- 32
2017-09-12 17:00:00 22.8 12 Oeste 30 Sudoeste 0 -- -- 33
2017-09-12 16:00:00 22.5 4 Norte 21 Norte 0 -- -- 37
2017-09-12 15:00:00 21.2 8 Oeste 24 Sudoeste 0 -- -- 41
2017-09-12 14:00:00 19.9 11 Sudoeste 33 Sudoeste 0 -- -- 47
2017-09-12 13:00:00 17.6 6 Oeste 16 Sudoeste 0 -- -- 57
2017-09-12 12:00:00 15.5 0 Calma 6 Oeste 0 -- -- 69
2017-09-12 11:00:00 14.6 3 Nordeste 9 Este 0 -- -- 74
2017-09-12 10:00:00 13.8 5 Nordeste 10 Este 0 -- -- 75
2017-09-12 09:00:00 13.6 4 Nordeste 12 Este 0 -- -- 75
2017-09-12 08:00:00 13.6 5 Este 12 Nordeste 0 -- -- 77
2017-09-12 07:00:00 13.6 3 Sudeste 6 Sudeste 0 -- -- 78
2017-09-12 06:00:00 13.4 0 Calma 6 Sudoeste 0 -- -- 79
2017-09-12 05:00:00 13.3 0 Calma 9 Norte 0 -- -- 79
2017-09-12 04:00:00 12.8 3 Norte 8 Norte 0 -- -- 80
2017-09-12 03:00:00 13.1 0 Calma 9 Norte 0 -- -- 79
2017-09-12 02:00:00 13.4 3 Nordeste 21 Este 0 -- -- 78
2017-09-12 01:00:00 14.2 6 Nordeste 14 Este 0 -- -- 74
2017-09-12 00:00:00 15.2 4 Nordeste 20 Este 0 -- -- 71
2017-09-11 23:00:00 16 7 Nordeste 18 Nordeste 0 -- -- 68
2017-09-11 22:00:00 17.3 5 Nordeste 18 Este 0 -- -- 64
2017-09-11 21:00:00 19.1 8 Nordeste 22 Nordeste 0 -- -- 60
2017-09-11 20:00:00 21.8 12 Nordeste 25 Norte 0 -- -- 54
2017-09-11 19:00:00 26.8 6 Noroeste 26 Sudoeste 0 -- -- 34
2017-09-11 18:00:00 26.6 8 Oeste 33 Oeste 0 -- -- 34
2017-09-11 17:00:00 26 13 Oeste 35 Sudoeste 0 -- -- 36
2017-09-11 16:00:00 26.2 9 Oeste 36 Noroeste 0 -- -- 36
2017-09-11 15:00:00 25.4 9 Oeste 38 Oeste 0 -- -- 39
2017-09-11 14:00:00 24.6 13 Oeste 39 Sudoeste 0 -- -- 42
2017-09-11 13:00:00 23 11 Oeste 32 Noroeste 0 -- -- 47
2017-09-11 12:00:00 21.2 16 Sudoeste 36 Oeste 0 -- -- 52
2017-09-11 11:00:00 19.6 12 Oeste 38 Sudoeste 0 -- -- 56
2017-09-11 10:00:00 16.9 12 Sudoeste 25 Sudoeste 0 -- -- 62
2017-09-11 09:00:00 11.3 0 Calma 6 Nordeste 0 -- -- 67
2017-09-11 08:00:00 9.1 3 Nordeste 8 Nordeste 0 -- -- 74
2017-09-11 07:00:00 9.3 0 Calma 8 Nordeste 0 -- -- 73
2017-09-11 06:00:00 10.1 3 Este 7 Este 0 -- -- 72
2017-09-11 05:00:00 10.6 2 Este 6 Nordeste 0 -- -- 70
2017-09-11 04:00:00 11.4 0 Calma 9 Este 0 -- -- 69
2017-09-11 03:00:00 12.9 4 Nordeste 8 Nordeste 0 -- -- 68
2017-09-11 02:00:00 13.5 0 Calma 8 Norte 0 -- -- 64
2017-09-11 01:00:00 13.3 3 Nordeste 6 Este 0 -- -- 64
2017-09-11 00:00:00 13.8 0 Calma 6 Nordeste 0 -- -- 61
2017-09-10 23:00:00 15 0 Calma 5 Nordeste 0 -- -- 55
2017-09-10 22:00:00 15.9 3 Norte 8 Noroeste 0 -- -- 50
2017-09-10 21:00:00 16.8 2 Norte 16 Nordeste 0 -- -- 47
2017-09-10 20:00:00 19.4 5 Nordeste 24 Oeste 0 -- -- 37
2017-09-10 19:00:00 20.8 9 Oeste 25 Oeste 0 -- -- 33
2017-09-10 18:00:00 20.9 9 Oeste 32 Noroeste 0 -- -- 32
2017-09-10 17:00:00 20.6 11 Oeste 36 Noroeste 0 -- -- 33
2017-09-10 16:00:00 19.9 14 Oeste 36 Sudoeste 0 -- -- 36
2017-09-10 15:00:00 18.8 8 Noroeste 30 Sudoeste 0 -- -- 40
2017-09-10 14:00:00 17.7 9 Norte 24 Sudoeste 0 -- -- 45
2017-09-10 13:00:00 15.4 10 Oeste 22 Noroeste 0 -- -- 52
2017-09-10 12:00:00 14.3 6 Norte 22 Noroeste 0 -- -- 56
2017-09-10 11:00:00 12.7 6 Oeste 23 Oeste 0.2 -- -- 61
2017-09-10 10:00:00 11.7 4 Sudoeste 13 Sudoeste 0 -- -- 68
2017-09-10 09:00:00 11.1 3 Norte 12 Noroeste 0 -- -- 69
2017-09-10 08:00:00 10.8 0 Calma 9 Sudoeste 0 -- -- 72
2017-09-10 07:00:00 10.4 5 Norte 19 Norte 0 -- -- 72
2017-09-10 06:00:00 9.4 2 Nordeste 8 Nordeste 0 -- -- 82
2017-09-10 05:00:00 10.1 3 Nordeste 17 Noroeste 0 -- -- 79
2017-09-10 04:00:00 10.5 2 Norte 5 Noroeste 0 -- -- 83
2017-09-10 03:00:00 10.6 3 Oeste 8 Norte 0 -- -- 84
2017-09-10 02:00:00 9.4 0 Calma 11 Nordeste 0 -- -- 89
2017-09-10 01:00:00 9.4 2 Nordeste 7 Nordeste 0 -- -- 88
2017-09-10 00:00:00 9.9 2 Nordeste 7 Nordeste 0 -- -- 89
2017-09-09 23:00:00 10.7 0 Calma 9 Noroeste 0 -- -- 86
2017-09-09 22:00:00 11.5 4 Norte 9 Noroeste 0 -- -- 82
2017-09-09 21:00:00 12.6 2 Norte 12 Oeste 0 -- -- 84
2017-09-09 20:00:00 13.2 5 Oeste 15 Oeste 1.4 -- -- 83
2017-09-09 19:00:00 15.8 8 Noroeste 16 Noroeste 0 -- -- 59
2017-09-09 18:00:00 15 3 Norte 24 Norte 0 -- -- 65
2017-09-09 17:00:00 14.3 14 Nordeste 27 Norte 0 -- -- 68
2017-09-09 16:00:00 17.2 11 Nordeste 24 Norte 0 -- -- 54
2017-09-09 15:00:00 16.1 9 Nordeste 25 Nordeste 0 -- -- 59
2017-09-09 14:00:00 14.5 9 Nordeste 27 Norte 0 -- -- 66
2017-09-09 13:00:00 15 10 Nordeste 34 Este 0 -- -- 71
2017-09-09 12:00:00 15.6 3 Nordeste 17 Sudoeste 0.2 -- -- 73
2017-09-09 11:00:00 15.8 8 Oeste 24 Oeste 0 -- -- 66
2017-09-09 10:00:00 15.6 2 Nordeste 8 Este 0 -- -- 55
2017-09-09 09:00:00 12.3 2 Sudoeste 6 Oeste 0 -- -- 62
2017-09-09 08:00:00 10.7 0 Calma 8 Nordeste 0 -- -- 63
2017-09-09 07:00:00 11.1 2 Nordeste 8 Este 0 -- -- 62
2017-09-09 06:00:00 11.2 3 Este 6 Sudeste 0 -- -- 63
2017-09-09 05:00:00 11.4 2 Este 8 Nordeste 0 -- -- 64
2017-09-09 04:00:00 11.5 2 Este 6 Nordeste 0 -- -- 64
2017-09-09 03:00:00 11.8 0 Calma 5 Nordeste 0 -- -- 62
2017-09-09 02:00:00 12.7 2 Este 5 Nordeste 0 -- -- 59
2017-09-09 01:00:00 14 0 Calma 6 Nordeste 0 -- -- 55
2017-09-09 00:00:00 15.9 3 Nordeste 6 Este 0 -- -- 49
2017-09-08 23:00:00 17.4 4 Nordeste 9 Este 0 -- -- 46
2017-09-08 22:00:00 20 3 Nordeste 14 Nordeste 0 -- -- 41
2017-09-08 21:00:00 22.4 10 Nordeste 22 Norte 0 -- -- 38
2017-09-08 20:00:00 25.8 9 Nordeste 21 Nordeste 0 -- -- 31
2017-09-08 19:00:00 29.5 12 Sudoeste 23 Sudoeste 0 -- -- 15
2017-09-08 18:00:00 29.9 9 Sudoeste 25 Sudoeste 0 -- -- 16
2017-09-08 17:00:00 29.7 5 Sudoeste 24 Sudoeste 0 -- -- 20
2017-09-08 16:00:00 28.8 4 Sudeste 20 Oeste 0 -- -- 21
2017-09-08 15:00:00 28.1 8 Oeste 20 Oeste 0 -- -- 21
2017-09-08 14:00:00 27.2 4 Oeste 23 Oeste 0 -- -- 22
2017-09-08 13:00:00 24.8 3 Oeste 9 Oeste 0 -- -- 24
2017-09-08 12:00:00 21.3 6 Oeste 12 Oeste 0 -- -- 34
2017-09-08 11:00:00 16.9 5 Oeste 10 Oeste 0 -- -- 49
2017-09-08 10:00:00 12.9 0 Calma 4 Oeste 0 -- -- 63
2017-09-08 09:00:00 9.1 0 Calma 5 Nordeste 0 -- -- 83
2017-09-08 08:00:00 7.7 0 Calma 5 Nordeste 0 -- -- 86
2017-09-08 07:00:00 8.2 2 Nordeste 6 Nordeste 0 -- -- 85
2017-09-08 06:00:00 8.7 0 Calma 5 Este 0 -- -- 84
2017-09-08 05:00:00 9.3 0 Calma 5 Nordeste 0 -- -- 82
2017-09-08 04:00:00 10 2 Nordeste 6 Nordeste 0 -- -- 80
2017-09-08 03:00:00 11 3 Nordeste 6 Este 0 -- -- 77
2017-09-08 02:00:00 12.4 3 Nordeste 6 Nordeste 0 -- -- 74
2017-09-08 01:00:00 13.8 0 Calma 6 Este 0 -- -- 70
2017-09-08 00:00:00 15 0 Calma 10 Nordeste 0 -- -- 66
2017-09-07 23:00:00 16.3 2 Sudeste 5 Sudeste 0 -- -- 61
2017-09-07 22:00:00 17.9 3 Este 15 Nordeste 0 -- -- 55
2017-09-07 21:00:00 19.5 2 Sudeste 14 Nordeste 0 -- -- 48
2017-09-07 20:00:00 21.5 9 Nordeste 26 Nordeste 0 -- -- 42
2017-09-07 19:00:00 24.4 11 Nordeste 21 Nordeste 0 -- -- 31
2017-09-07 18:00:00 26.3 5 Norte 23 Nordeste 0 -- -- 23
2017-09-07 17:00:00 26.1 10 Norte 27 Norte 0 -- -- 22
2017-09-07 16:00:00 25.9 5 Noroeste 20 Noroeste 0 -- -- 26
2017-09-07 15:00:00 24.4 8 Este 21 Oeste 0 -- -- 30
2017-09-07 14:00:00 22.3 10 Sudoeste 20 Sudoeste 0 -- -- 37
2017-09-07 13:00:00 20.7 8 Oeste 15 Oeste 0 -- -- 45
2017-09-07 12:00:00 18.1 4 Sudoeste 13 Oeste 0 -- -- 56
2017-09-07 11:00:00 16.3 4 Sudoeste 11 Sudoeste 0 -- -- 60
2017-09-07 10:00:00 14 4 Este 9 Nordeste 0 -- -- 66
2017-09-07 09:00:00 11.1 3 Este 5 Sudeste 0 -- -- 79
2017-09-07 08:00:00 9.9 0 Calma 5 Sur 0 -- -- 82
2017-09-07 07:00:00 10.1 0 Calma 5 Este 0 -- -- 82
2017-09-07 06:00:00 10.9 0 Calma 4 Nordeste 0 -- -- 80
2017-09-07 05:00:00 11.7 2 Nordeste 6 Nordeste 0 -- -- 77
2017-09-07 04:00:00 12.1 0 Calma 6 Norte 0 -- -- 76
2017-09-07 03:00:00 12.9 0 Calma 14 Nordeste 0 -- -- 73
2017-09-07 02:00:00 13.5 6 Nordeste 15 Nordeste 0 -- -- 72
2017-09-07 01:00:00 14.3 5 Nordeste 16 Norte 0 -- -- 70
2017-09-07 00:00:00 15.2 7 Nordeste 18 Nordeste 0 -- -- 68
2017-09-06 23:00:00 16.3 3 Nordeste 18 Nordeste 0 -- -- 65
2017-09-06 22:00:00 17.6 7 Nordeste 18 Nordeste 0 -- -- 62
2017-09-06 21:00:00 19.1 10 Nordeste 25 Nordeste 0 -- -- 59
2017-09-06 20:00:00 21.4 10 Nordeste 29 Nordeste 0 -- -- 54
2017-09-06 19:00:00 23.6 12 Nordeste 31 Este 0 -- -- 49
2017-09-06 18:00:00 25 12 Nordeste 29 Norte 0 -- -- 45
2017-09-06 17:00:00 25.7 8 Nordeste 34 Nordeste 0 -- -- 44
2017-09-06 16:00:00 25.6 13 Nordeste 31 Nordeste 0 -- -- 44
2017-09-06 15:00:00 25.7 12 Nordeste 29 Norte 0 -- -- 44
2017-09-06 14:00:00 25.7 6 Nordeste 23 Nordeste 0 -- -- 42
2017-09-06 13:00:00 24.4 9 Norte 19 Norte 0 -- -- 45
2017-09-06 12:00:00 22.8 5 Norte 18 Nordeste 0 -- -- 48
2017-09-06 11:00:00 20.9 5 Noroeste 14 Noroeste 0 -- -- 53
2017-09-06 10:00:00 19 3 Este 8 Este 0 -- -- 63
2017-09-06 09:00:00 16.1 0 Calma 4 Sudeste 0 -- -- 75
2017-09-06 08:00:00 15.2 0 Calma 4 Noroeste 0 -- -- 80
2017-09-06 07:00:00 15.4 0 Calma 11 Nordeste 0 -- -- 79
2017-09-06 06:00:00 15.6 2 Este 11 Este 0 -- -- 78
2017-09-06 05:00:00 16.1 4 Este 11 Norte 0 -- -- 77
2017-09-06 04:00:00 16.5 4 Nordeste 12 Nordeste 0 -- -- 77
2017-09-06 03:00:00 17.2 4 Nordeste 18 Nordeste 0 -- -- 75
2017-09-06 02:00:00 18.5 8 Nordeste 17 Nordeste 0 -- -- 72
2017-09-06 01:00:00 19.9 3 Sudeste 10 Nordeste 0 -- -- 69
2017-09-06 00:00:00 21.2 2 Nordeste 9 Nordeste 0 -- -- 65
2017-09-05 23:00:00 22.4 0 Calma 14 Nordeste 0 -- -- 52
2017-09-05 22:00:00 23.7 8 Nordeste 28 Este 0 -- -- 49
2017-09-05 21:00:00 25.4 12 Nordeste 27 Nordeste 0 -- -- 45
2017-09-05 20:00:00 28.4 10 Nordeste 20 Nordeste 0 -- -- 37
2017-09-05 19:00:00 30.1 4 Nordeste 18 Nordeste 0 -- -- 32
2017-09-05 18:00:00 30.4 5 Nordeste 19 Norte 0 -- -- 32
2017-09-05 17:00:00 31 6 Oeste 22 Noroeste 0 -- -- 32
2017-09-05 16:00:00 29.8 5 Sudoeste 13 Sudoeste 0 -- -- 35
2017-09-05 15:00:00 29 5 Este 14 Oeste 0 -- -- 38
2017-09-05 14:00:00 28 10 Sudoeste 19 Sudoeste 0 -- -- 40
2017-09-05 13:00:00 26.2 7 Sudoeste 16 Noroeste 0 -- -- 46
2017-09-05 12:00:00 24.9 2 Sudoeste 9 Sudeste 0 -- -- 51
2017-09-05 11:00:00 23.1 3 Este 10 Sudeste 0 -- -- 59
2017-09-05 10:00:00 19.4 3 Noroeste 7 Noroeste 0 -- -- 72
2017-09-05 09:00:00 15.4 0 Calma 5 Sudeste 0 -- -- 84
2017-09-05 08:00:00 13.5 0 Calma 6 Norte 0 -- -- 86
2017-09-05 07:00:00 13.9 0 Calma 5 Sudeste 0 -- -- 85
2017-09-05 06:00:00 14.1 0 Calma 6 Nordeste 0 -- -- 84
2017-09-05 05:00:00 14.2 0 Calma 9 Sudeste 0 -- -- 80
2017-09-05 04:00:00 14.1 3 Este 7 Nordeste 0 -- -- 79
2017-09-05 03:00:00 14.7 3 Este 8 Nordeste 0 -- -- 76
2017-09-05 02:00:00 15.2 0 Calma 6 Nordeste 0 -- -- 73
2017-09-05 01:00:00 16.2 0 Calma 6 Nordeste 0 -- -- 69
2017-09-05 00:00:00 17.4 3 Este 6 Nordeste 0 -- -- 66
2017-09-04 23:00:00 18.8 0 Calma 5 Norte 0 -- -- 61
2017-09-04 22:00:00 20.6 2 Nordeste 10 Nordeste 0 -- -- 55
2017-09-04 21:00:00 22.3 7 Nordeste 13 Nordeste 0 -- -- 50
2017-09-04 20:00:00 24.5 6 Nordeste 15 Nordeste 0 -- -- 42
2017-09-04 19:00:00 25.5 7 Norte 22 Nordeste 0 -- -- 40
2017-09-04 18:00:00 25.1 4 Norte 23 Norte 0 -- -- 40
2017-09-04 17:00:00 24.8 6 Nordeste 25 Nordeste 0 -- -- 41
2017-09-04 16:00:00 25.2 8 Nordeste 27 Nordeste 0 -- -- 43
2017-09-04 15:00:00 25 6 Norte 27 Este 0 -- -- 43
2017-09-04 14:00:00 24.1 9 Norte 24 Noroeste 0 -- -- 44
2017-09-04 13:00:00 24 6 Nordeste 23 Nordeste 0 -- -- 43
2017-09-04 12:00:00 22.2 5 Noroeste 22 Sudoeste 0 -- -- 45
2017-09-04 11:00:00 20.7 6 Oeste 21 Norte 0 -- -- 48
2017-09-04 10:00:00 18.4 3 Sudoeste 14 Oeste 0 -- -- 52
2017-09-04 09:00:00 13.5 2 Este 10 Nordeste 0 -- -- 70
2017-09-04 08:00:00 11.5 0 Calma 6 Sudoeste 0 -- -- 77
2017-09-04 07:00:00 11.4 2 Nordeste 5 Nordeste 0 -- -- 75
2017-09-04 06:00:00 12.1 0 Calma 6 Nordeste 0 -- -- 72
2017-09-04 05:00:00 12.9 2 Este 5 Este 0 -- -- 69
2017-09-04 04:00:00 13.6 0 Calma 5 Nordeste 0 -- -- 66
2017-09-04 03:00:00 14.3 2 Este 10 Nordeste 0 -- -- 62
2017-09-04 02:00:00 14.6 3 Nordeste 8 Nordeste 0 -- -- 60
2017-09-04 01:00:00 15.6 2 Este 7 Nordeste 0 -- -- 56
2017-09-04 00:00:00 17.3 3 Este 7 Nordeste 0 -- -- 50
2017-09-03 23:00:00 19.2 0 Calma 14 Nordeste 0 -- -- 44
2017-09-03 22:00:00 21.2 4 Nordeste 14 Nordeste 0 -- -- 38
2017-09-03 21:00:00 22.5 8 Nordeste 18 Nordeste 0 -- -- 35
2017-09-03 20:00:00 24.3 9 Nordeste 21 Norte 0 -- -- 33
2017-09-03 19:00:00 27.5 3 Noroeste 21 Sudoeste 0 -- -- 25
2017-09-03 18:00:00 29.1 8 Norte 29 Oeste 0 -- -- 22
2017-09-03 17:00:00 28.7 11 Oeste 28 Sudoeste 0 -- -- 21
2017-09-03 16:00:00 27.8 12 Sudoeste 30 Oeste 0 -- -- 21
2017-09-03 15:00:00 26.6 8 Noroeste 23 Oeste 0 -- -- 21
2017-09-03 14:00:00 25.5 8 Norte 27 Noroeste 0 -- -- 24
2017-09-03 13:00:00 23.6 4 Oeste 11 Sudoeste 0 -- -- 29
2017-09-03 12:00:00 20.1 3 Sudoeste 10 Oeste 0 -- -- 39
2017-09-03 11:00:00 16.5 0 Calma 10 Oeste 0 -- -- 52
2017-09-03 10:00:00 14.2 0 Calma 6 Noroeste 0 -- -- 62
2017-09-03 09:00:00 11.8 0 Calma 5 Nordeste 0 -- -- 76
2017-09-03 08:00:00 10.5 0 Calma 6 Este 0 -- -- 82
2017-09-03 07:00:00 10.6 0 Calma 4 Norte 0 -- -- 81
2017-09-03 06:00:00 10.5 0 Calma 4 Sudeste 0 -- -- 81
2017-09-03 05:00:00 10.3 0 Calma 3 Nordeste 0 -- -- 81
2017-09-03 04:00:00 10.3 0 Calma 5 Nordeste 0 -- -- 80
2017-09-03 03:00:00 10.9 0 Calma 6 Nordeste 0 -- -- 78
2017-09-03 02:00:00 11.9 2 Nordeste 6 Este 0 -- -- 75
2017-09-03 01:00:00 13.3 0 Calma 6 Nordeste 0 -- -- 71
2017-09-03 00:00:00 14.2 2 Nordeste 4 Norte 0 -- -- 67
2017-09-02 23:00:00 15.3 3 Nordeste 6 Nordeste 0 -- -- 62
2017-09-02 22:00:00 16.8 2 Este 12 Nordeste 0 -- -- 57
2017-09-02 21:00:00 18.5 6 Nordeste 18 Nordeste 0 -- -- 51
2017-09-02 20:00:00 21.3 9 Este 21 Nordeste 0 -- -- 42
2017-09-02 19:00:00 24.2 4 Sur 14 Sudeste 0 -- -- 29
2017-09-02 18:00:00 24.6 7 Oeste 20 Oeste 0 -- -- 28
2017-09-02 17:00:00 24.1 6 Oeste 21 Noroeste 0 -- -- 29
2017-09-02 16:00:00 23 6 Norte 23 Nordeste 0 -- -- 29
2017-09-02 15:00:00 22.1 8 Norte 24 Norte 0 -- -- 32
2017-09-02 14:00:00 20.4 9 Noroeste 25 Norte 0 -- -- 36
2017-09-02 13:00:00 19.5 4 Este 17 Norte 0 -- -- 40
2017-09-02 12:00:00 17.4 4 Oeste 23 Norte 0 -- -- 46
2017-09-02 11:00:00 15.8 5 Nordeste 15 Sudoeste 0 -- -- 52
2017-09-02 10:00:00 13.2 4 Sur 9 Sudoeste 0 -- -- 67
2017-09-02 09:00:00 9.3 4 Oeste 8 Sudoeste 0 -- -- 85
2017-09-02 08:00:00 7.8 0 Calma 8 Nordeste 0 -- -- 85
2017-09-02 07:00:00 8.2 2 Nordeste 8 Norte 0 -- -- 85
2017-09-02 06:00:00 9 0 Calma 6 Este 0 -- -- 84
2017-09-02 05:00:00 10.2 3 Nordeste 6 Nordeste 0 -- -- 81
2017-09-02 04:00:00 11.3 2 Nordeste 7 Nordeste 0 -- -- 79
2017-09-02 03:00:00 10.8 3 Nordeste 7 Nordeste 0 -- -- 79
2017-09-02 02:00:00 11.5 0 Calma 5 Nordeste 0 -- -- 76
2017-09-02 01:00:00 12.5 0 Calma 6 Nordeste 0 -- -- 70
2017-09-02 00:00:00 13.9 3 Norte 14 Norte 0 -- -- 64
2017-09-01 23:00:00 14.6 5 Noroeste 27 Norte 0 -- -- 61
2017-09-01 22:00:00 15.4 14 Nordeste 30 Nordeste 0 -- -- 58
2017-09-01 21:00:00 16.8 13 Nordeste 30 Nordeste 0 -- -- 53
2017-09-01 20:00:00 18.9 11 Nordeste 32 Este 0 -- -- 43
2017-09-01 19:00:00 20.3 14 Nordeste 32 Norte 0 -- -- 43
2017-09-01 18:00:00 21.2 14 Nordeste 32 Norte 0 -- -- 45
2017-09-01 17:00:00 21.2 9 Norte 30 Norte 0 -- -- 43
2017-09-01 16:00:00 22.1 9 Nordeste 28 Nordeste 0 -- -- 43
2017-09-01 15:00:00 20.9 10 Nordeste 23 Nordeste 0 -- -- 43
2017-09-01 14:00:00 21.2 9 Nordeste 20 Nordeste 0 -- -- 43
2017-09-01 13:00:00 20.1 4 Este 15 Nordeste 0.2 -- -- 45
2017-09-01 12:00:00 18 5 Nordeste 14 Nordeste 0 -- -- 50
2017-09-01 11:00:00 15.6 2 Oeste 7 Sudoeste 0 -- -- 66
2017-09-01 10:00:00 14.1 3 Oeste 8 Sudoeste 0 -- -- 74
2017-09-01 09:00:00 13 2 Sur 6 Sudeste 0 -- -- 84
2017-09-01 08:00:00 13.4 3 Sur 8 Norte 0.8 -- -- 74
2017-09-01 07:00:00 14.1 0 Calma 6 Norte 0 -- -- 62
2017-09-01 06:00:00 13.7 0 Calma 5 Sudeste 0 -- -- 63
2017-09-01 05:00:00 13.2 0 Calma 5 Nordeste 0 -- -- 69
2017-09-01 04:00:00 12.8 0 Calma 5 Nordeste 0 -- -- 73
2017-09-01 03:00:00 13.7 0 Calma 5 Norte 0 -- -- 67
2017-09-01 02:00:00 13.9 3 Norte 6 Norte 0 -- -- 68
2017-09-01 01:00:00 14.6 3 Norte 6 Norte 0 -- -- 67
2017-09-01 00:00:00 15.1 0 Calma 9 Nordeste 0 -- -- 66
2017-08-31 23:00:00 15.9 3 Norte 22 Nordeste 0 -- -- 64
2017-08-31 22:00:00 16.9 10 Nordeste 26 Nordeste 0 -- -- 63
2017-08-31 21:00:00 17.9 11 Nordeste 27 Este 0 -- -- 59
2017-08-31 20:00:00 19.4 11 Nordeste 30 Nordeste 0 -- -- 57
2017-08-31 19:00:00 21 12 Nordeste 27 Norte 0 -- -- 53
2017-08-31 18:00:00 22.5 10 Nordeste 26 Este 0 -- -- 47
2017-08-31 17:00:00 21.4 10 Nordeste 24 Nordeste 0 -- -- 51
2017-08-31 16:00:00 22.7 12 Nordeste 23 Norte 0 -- -- 48
2017-08-31 15:00:00 22.1 9 Nordeste 23 Nordeste 0 -- -- 49
2017-08-31 14:00:00 21 7 Nordeste 18 Nordeste 0 -- -- 53
2017-08-31 13:00:00 19.1 6 Nordeste 17 Norte 0 -- -- 60
2017-08-31 12:00:00 17.7 4 Nordeste 17 Nordeste 0 -- -- 64
2017-08-31 11:00:00 17.5 -- -- 17 Nordeste 0 -- -- 64
2017-08-31 10:00:00 16.5 -- -- -- -- -- -- -- 72
2017-08-31 09:00:00 14.5 3 Nordeste 12 Nordeste 0 -- -- 79
2017-08-31 08:00:00 14.4 5 Nordeste 15 Nordeste 0 -- -- 80
2017-08-31 07:00:00 14.7 4 Nordeste 14 Nordeste 0 -- -- 83
2017-08-31 06:00:00 15.7 4 Este 9 Nordeste 0 -- -- 77
2017-08-31 05:00:00 16 2 Sur 7 Sudeste 0 -- -- 78
2017-08-31 04:00:00 16.3 2 Este 9 Este 0 -- -- 76
2017-08-31 03:00:00 16.7 2 Este -- -- 0 -- -- 76
2017-08-31 02:00:00 17.3 3 Este 18 Nordeste 0 -- -- 78
2017-08-31 01:00:00 17.9 5 Nordeste 16 Nordeste 0 -- -- 75
2017-08-31 00:00:00 18.6 2 Este 8 Norte 0 -- -- 67
2017-08-30 23:00:00 20 3 Noroeste 10 Noroeste 0 -- -- 59
2017-08-30 22:00:00 21.1 3 Noroeste 19 Oeste 0 -- -- 54
2017-08-30 21:00:00 23 3 Nordeste 14 Oeste 0 -- -- 57
2017-08-30 20:00:00 24.9 8 Oeste 18 Oeste 0 -- -- 42
2017-08-30 19:00:00 25.6 4 Nordeste 10 Nordeste 0 -- -- 43
2017-08-30 18:00:00 24.6 3 Este 13 Sudeste 0 -- -- 49
2017-08-30 17:00:00 23.4 2 Sudeste 12 Sudoeste 0 -- -- 54
2017-08-30 16:00:00 24.4 2 Noroeste 25 Sudoeste 0 -- -- 48
2017-08-30 15:00:00 24.4 12 Oeste 20 Sur 0 -- -- 50
2017-08-30 14:00:00 24.6 6 Sudoeste 16 Oeste 0 -- -- 47
2017-08-30 13:00:00 22.9 3 Sudoeste 12 Sudoeste 0 -- -- 52
2017-08-30 12:00:00 22.3 3 Sudoeste 10 Sur 0 -- -- 56
2017-08-30 11:00:00 21 3 Sudeste 10 Sur 0 -- -- 61
2017-08-30 10:00:00 18.8 2 Oeste 12 Sudeste 0 -- -- 72
2017-08-30 09:00:00 16.9 0 Calma 6 Noroeste 0 -- -- 77
2017-08-30 08:00:00 16.3 0 Calma 6 Sudoeste 0 -- -- 80
2017-08-30 07:00:00 16.3 2 Nordeste 8 Este 0 -- -- 79
2017-08-30 06:00:00 16.9 2 Oeste 12 Sudoeste 0 -- -- 76
2017-08-30 05:00:00 17.4 5 Sur 16 Sudeste 0 -- -- 74
2017-08-30 04:00:00 17.6 3 Noroeste 18 Este 0 -- -- 74
2017-08-30 03:00:00 17.8 5 Noroeste 13 Sur 0 -- -- 72
2017-08-30 02:00:00 18 5 Sur 18 Sudeste 0 -- -- 68
2017-08-30 01:00:00 17.3 4 Oeste 16 Sudeste 0 -- -- 70
2017-08-30 00:00:00 17.6 5 Sudoeste 21 Sur 0 -- -- 68
2017-08-29 23:00:00 17.7 8 Sudeste 23 Sudeste 0 -- -- 67
2017-08-29 22:00:00 18.3 3 Nordeste 21 Sudeste 0 -- -- 65
2017-08-29 21:00:00 19.1 6 Sudeste 25 Sur 0 -- -- 63
2017-08-29 20:00:00 19.8 8 Sudeste 23 Este 0 -- -- 62
2017-08-29 19:00:00 20.9 8 Este 30 Sudeste 0 -- -- 57
2017-08-29 18:00:00 22.6 7 Oeste 28 Sur 0 -- -- 62
2017-08-29 17:00:00 23.3 8 Sudeste 26 Este 0.2 -- -- 60
2017-08-29 16:00:00 24.8 11 Este 25 Nordeste 0 -- -- 61
2017-08-29 15:00:00 26.6 5 Este 18 Sur 0 -- -- 47
2017-08-29 14:00:00 24.8 8 Este 24 Sur 0 -- -- 54
2017-08-29 13:00:00 23.4 6 Oeste 21 Sudeste 0 -- -- 60
2017-08-29 12:00:00 21.5 7 Este 19 Sur 0 -- -- 68
2017-08-29 11:00:00 20 4 Sur 11 Nordeste 0 -- -- 75
2017-08-29 10:00:00 17.5 3 Sudoeste 8 Sudoeste 0 -- -- 85
2017-08-29 09:00:00 16.1 0 Calma 7 Oeste 0 -- -- 87
2017-08-29 08:00:00 14.9 4 Sudoeste 16 Sudeste 2.4 -- -- 95
2017-08-29 07:00:00 14.4 0 Calma 6 Este 0 -- -- 95
2017-08-29 06:00:00 14.3 3 Nordeste 8 Norte 0 -- -- 95
2017-08-29 05:00:00 14.2 0 Calma 6 Nordeste 0 -- -- 95
2017-08-29 04:00:00 14.6 0 Calma 5 Sudeste 0 -- -- 94
2017-08-29 03:00:00 14.9 2 Sudoeste 7 Nordeste 0 -- -- 94
2017-08-29 02:00:00 15 3 Nordeste 9 Norte 0 -- -- 94
2017-08-29 01:00:00 15.3 0 Calma 6 Sudoeste 0 -- -- 93
2017-08-29 00:00:00 15.6 2 Sur 13 Este 0 -- -- 92
2017-08-28 23:00:00 15.8 2 Este 20 Sudoeste 5.2 -- -- 92
2017-08-28 22:00:00 16.7 7 Oeste 23 Oeste 1.2 -- -- 83
2017-08-28 21:00:00 17.6 9 Oeste 30 Oeste 1.2 -- -- 84
2017-08-28 20:00:00 19.4 2 Nordeste 22 Sudoeste 0.4 -- -- 82
2017-08-28 19:00:00 20.9 2 Sur 9 Sudoeste 0 -- -- 78
2017-08-28 18:00:00 21.3 5 Oeste 11 Nordeste 0 -- -- 77
2017-08-28 17:00:00 20 5 Este 21 Este 0 -- -- 78
2017-08-28 16:00:00 18.4 5 Nordeste 63 Sudoeste 6.2 -- -- 92
2017-08-28 15:00:00 26.1 12 Sudeste 36 Sudoeste 0 -- -- 46
2017-08-28 14:00:00 29.2 9 Nordeste 22 Este 0 -- -- 36
2017-08-28 13:00:00 28.1 9 Nordeste 17 Nordeste 0 -- -- 43
2017-08-28 12:00:00 26.3 6 Nordeste 17 Nordeste 0 -- -- 48
2017-08-28 11:00:00 22.2 8 Oeste 18 Sudoeste 0 -- -- 69
2017-08-28 10:00:00 20.4 0 Calma 10 Sur 0.2 -- -- 79
2017-08-28 09:00:00 17.1 3 Este 8 Nordeste 1 -- -- 91
2017-08-28 08:00:00 15.8 3 Nordeste 8 Nordeste 0 -- -- 89
2017-08-28 07:00:00 15.4 3 Nordeste 8 Nordeste 0 -- -- 90
2017-08-28 06:00:00 15.4 0 Calma 6 Nordeste 0 -- -- 90
2017-08-28 05:00:00 15.5 3 Nordeste 7 Nordeste 0 -- -- 90
2017-08-28 04:00:00 15.6 0 Calma 6 Este 0 -- -- 89
2017-08-28 03:00:00 15.7 3 Este 8 Este 0 -- -- 89
2017-08-28 02:00:00 16.2 0 Calma 8 Este 0 -- -- 88
2017-08-28 01:00:00 16.1 3 Nordeste 7 Nordeste 0 -- -- 91
2017-08-28 00:00:00 16.5 2 Nordeste 6 Nordeste 0 -- -- 90
2017-08-27 23:00:00 17.4 3 Nordeste 6 Este 0 -- -- 86
2017-08-27 22:00:00 18.1 2 Este 14 Sudoeste 0 -- -- 84
2017-08-27 21:00:00 18.4 5 Nordeste 9 Nordeste 0 -- -- 82
2017-08-27 20:00:00 18.8 0 Calma 10 Sudeste 0.2 -- -- 80
2017-08-27 19:00:00 18.9 2 Este 15 Sudeste 1.4 -- -- 75
2017-08-27 18:00:00 19.5 2 Norte 9 Nordeste 0 -- -- 86
2017-08-27 17:00:00 19.1 2 Sur 13 Nordeste 1.4 -- -- 87
2017-08-27 16:00:00 18.5 5 Nordeste 15 Oeste 5.2 -- -- 87
2017-08-27 15:00:00 19.4 9 Noroeste 35 Sudoeste 2.4 -- -- 73
2017-08-27 14:00:00 25.2 15 Sudoeste 38 Sudoeste 0 -- -- 49
2017-08-27 13:00:00 26 4 Este 14 Sudeste 0 -- -- 45
2017-08-27 12:00:00 25.2 3 Este 17 Este 0 -- -- 47
2017-08-27 11:00:00 24.3 4 Este 13 Este 0 -- -- 50
2017-08-27 10:00:00 24.1 3 Nordeste 9 Nordeste 0 -- -- 56
2017-08-27 09:00:00 21.1 3 Norte 8 Este 0 -- -- 67
2017-08-27 08:00:00 20.4 3 Nordeste 21 Sur 0 -- -- 66
2017-08-27 07:00:00 19.9 5 Este 16 Sudeste 0 -- -- 65
2017-08-27 06:00:00 20 0 Calma 9 Nordeste 0 -- -- 69
2017-08-27 05:00:00 20.2 6 Nordeste 14 Nordeste 0 -- -- 69
2017-08-27 04:00:00 20 3 Nordeste 15 Sur 0 -- -- 70
2017-08-27 03:00:00 21.7 11 Este 26 Este 0 -- -- 66
2017-08-27 02:00:00 21.2 3 Oeste 7 Sudeste 0 -- -- 62
2017-08-27 01:00:00 21 0 Calma 10 Nordeste 0 -- -- 62
2017-08-27 00:00:00 21.8 3 Este 14 Oeste 0 -- -- 59
2017-08-26 23:00:00 22.4 6 Sur 20 Sudeste 0 -- -- 55
2017-08-26 22:00:00 23.2 0 Calma 28 Este 0 -- -- 51
2017-08-26 21:00:00 25.7 5 Este 31 Este 0 -- -- 42
2017-08-26 20:00:00 30.2 4 Sudeste 9 Nordeste 0 -- -- 31
2017-08-26 19:00:00 30.2 5 Sudoeste 13 Sudoeste 0 -- -- 29
2017-08-26 18:00:00 30.8 5 Este 21 Sudeste 0 -- -- 31
2017-08-26 17:00:00 30.3 6 Este 28 Nordeste 0 -- -- 32
2017-08-26 16:00:00 34 7 Norte 26 Oeste 0 -- -- 16
2017-08-26 15:00:00 33.6 11 Oeste 30 Sudoeste 0 -- -- 16
2017-08-26 14:00:00 33.9 11 Oeste 32 Oeste 0 -- -- 15
2017-08-26 13:00:00 33.1 14 Oeste 29 Sudoeste 0 -- -- 17
2017-08-26 12:00:00 32 6 Sur 17 Este 0 -- -- 26
2017-08-26 11:00:00 29.7 4 Nordeste 18 Sudoeste 0 -- -- 31
2017-08-26 10:00:00 26.7 4 Sudeste 13 Sur 0 -- -- 36
2017-08-26 09:00:00 24.2 4 Este 15 Oeste 0 -- -- 43
2017-08-26 08:00:00 23 5 Sudeste 15 Sudeste 0 -- -- 48
2017-08-26 07:00:00 22.7 3 Este 12 Sudeste 0 -- -- 50
2017-08-26 06:00:00 23.1 5 Este 24 Sur 0 -- -- 47
2017-08-26 05:00:00 23.2 5 Oeste 15 Sur 0 -- -- 47
2017-08-26 04:00:00 22.6 4 Noroeste 12 Oeste 0 -- -- 49
2017-08-26 03:00:00 22.5 0 Calma 6 Norte 0 -- -- 51
2017-08-26 02:00:00 22.9 3 Oeste 11 Sudeste 0 -- -- 49
2017-08-26 01:00:00 22.9 3 Noroeste 20 Sudoeste 0 -- -- 50
2017-08-26 00:00:00 23.5 7 Este 18 Sudeste 0 -- -- 48
2017-08-25 23:00:00 24.3 4 Norte 22 Sur 0 -- -- 44
2017-08-25 22:00:00 25.8 8 Sudeste 35 Sudeste 0 -- -- 38
2017-08-25 21:00:00 30.6 8 Oeste 30 Sudoeste 0 -- -- 27
2017-08-25 20:00:00 31.2 21 Sudoeste 46 Oeste 0 -- -- 21
2017-08-25 19:00:00 33.1 19 Oeste 44 Sudoeste 0 -- -- 18
2017-08-25 18:00:00 32.6 30 Sudoeste 50 Sudoeste 0 -- -- 18
2017-08-25 17:00:00 34.9 17 Oeste 42 Sudoeste 0 -- -- 16
2017-08-25 16:00:00 36.1 17 Oeste 38 Sudoeste 0 -- -- 15
2017-08-25 15:00:00 35 5 Sudeste 25 Sudoeste 0 -- -- 18
2017-08-25 14:00:00 34.7 6 Sudoeste 20 Oeste 0 -- -- 19
2017-08-25 13:00:00 32.9 9 Sudoeste 23 Sudoeste 0 -- -- 20
2017-08-25 12:00:00 30.3 3 Noroeste 13 Sudeste 0 -- -- 27
2017-08-25 11:00:00 26.8 2 Este 15 Sudeste 0 -- -- 36
2017-08-25 10:00:00 25.7 5 Este 16 Sudeste 0 -- -- 38
2017-08-25 09:00:00 22.9 3 Norte 10 Sur 0 -- -- 46
2017-08-25 08:00:00 20.8 2 Nordeste 8 Sur 0 -- -- 57
2017-08-25 07:00:00 21.4 3 Oeste 13 Sudeste 0 -- -- 57
2017-08-25 06:00:00 22.2 5 Sur 15 Sudeste 0 -- -- 56
2017-08-25 05:00:00 22.9 2 Nordeste 17 Sudeste 0 -- -- 55
2017-08-25 04:00:00 23.7 4 Sur 16 Sudeste 0 -- -- 53
2017-08-25 03:00:00 24.2 3 Sudoeste 14 Sudeste 0 -- -- 52
2017-08-25 02:00:00 24.9 7 Este 17 Este 0 -- -- 50
2017-08-25 01:00:00 26.4 5 Sur 17 Sudeste 0 -- -- 42
2017-08-25 00:00:00 25.7 4 Nordeste 13 Norte 0 -- -- 47
2017-08-24 23:00:00 24.5 4 Norte 10 Norte 0 -- -- 48
2017-08-24 22:00:00 26.8 3 Este 16 Norte 0 -- -- 44
2017-08-24 21:00:00 29 4 Nordeste 20 Este 0 -- -- 39
2017-08-24 20:00:00 31.2 11 Este 27 Nordeste 0 -- -- 34
2017-08-24 19:00:00 32.4 13 Nordeste 32 Nordeste 0 -- -- 32
2017-08-24 18:00:00 32.8 15 Nordeste 37 Nordeste 0 -- -- 33
2017-08-24 17:00:00 32.9 15 Nordeste 31 Este 0 -- -- 35
2017-08-24 16:00:00 36.2 10 Norte 23 Nordeste 0 -- -- 25
2017-08-24 15:00:00 35.4 7 Sudeste 21 Sur 0 -- -- 18
2017-08-24 14:00:00 33.5 4 Este 14 Sudeste 0 -- -- 20
2017-08-24 13:00:00 31.9 3 Sudeste 15 Este 0 -- -- 23
2017-08-24 12:00:00 29.9 4 Este 15 Sur 0 -- -- 28
2017-08-24 11:00:00 26.6 4 Sudeste 14 Sudeste 0 -- -- 38
2017-08-24 10:00:00 24 2 Nordeste 11 Sudeste 0 -- -- 52
2017-08-24 09:00:00 19.9 4 Nordeste 11 Nordeste 0 -- -- 79
2017-08-24 08:00:00 17.2 3 Este 7 Nordeste 0 -- -- 86
2017-08-24 07:00:00 17.8 2 Este 6 Nordeste 0 -- -- 83
2017-08-24 06:00:00 19 0 Calma 6 Nordeste 0 -- -- 80
2017-08-24 05:00:00 19.9 3 Este 19 Nordeste 0 -- -- 76
2017-08-24 04:00:00 19.9 5 Nordeste 17 Nordeste 0 -- -- 73
2017-08-24 03:00:00 20.4 6 Este 38 Nordeste 0 -- -- 75
2017-08-24 02:00:00 21 14 Nordeste 35 Nordeste 0.2 -- -- 66
2017-08-24 01:00:00 22.9 10 Nordeste 28 Nordeste 0.2 -- -- 71
2017-08-24 00:00:00 24.4 3 Nordeste 14 Este 0 -- -- 57
2017-08-23 23:00:00 25 5 Nordeste 17 Sudeste 0 -- -- 53
2017-08-23 22:00:00 25.9 7 Este 15 Nordeste 0 -- -- 46
2017-08-23 21:00:00 26.7 2 Norte 18 Este 0 -- -- 41
2017-08-23 20:00:00 29.4 3 Noroeste 18 Sur 0 -- -- 35
2017-08-23 19:00:00 31.1 3 Noroeste 18 Sudeste 0 -- -- 32
2017-08-23 18:00:00 31.9 7 Sudeste 28 Sudeste 0 -- -- 28
2017-08-23 17:00:00 31 9 Nordeste 28 Este 0 -- -- 40
2017-08-23 16:00:00 28.6 8 Este 19 Este 0.6 -- -- 50
2017-08-23 15:00:00 29.7 9 Nordeste 29 Este 0 -- -- 37
2017-08-23 14:00:00 30.6 9 Nordeste 17 Nordeste 0 -- -- 35
2017-08-23 13:00:00 30 6 Este 17 Nordeste 0 -- -- 35
2017-08-23 12:00:00 27.3 6 Nordeste 17 Este 0 -- -- 40
2017-08-23 11:00:00 25.7 6 Nordeste 17 Nordeste 0 -- -- 42
2017-08-23 10:00:00 23.7 4 Este 10 Nordeste 0 -- -- 46
2017-08-23 09:00:00 20.4 0 Calma 4 Oeste 0 -- -- 56
2017-08-23 08:00:00 19.1 0 Calma 5 Nordeste 0 -- -- 66
2017-08-23 07:00:00 19.2 0 Calma 8 Sudeste 0 -- -- 65
2017-08-23 06:00:00 20 0 Calma 6 Nordeste 0 -- -- 65
2017-08-23 05:00:00 21.2 0 Calma 11 Sudeste 0 -- -- 59
2017-08-23 04:00:00 21.8 4 Norte 18 Norte 0 -- -- 59
2017-08-23 03:00:00 22.6 3 Este 17 Norte 0 -- -- 68
2017-08-23 02:00:00 23 3 Este 7 Este 0 -- -- 67
2017-08-23 01:00:00 23.5 0 Calma 12 Este 0 -- -- 64
2017-08-23 00:00:00 23.5 0 Calma 11 Este 0 -- -- 69
2017-08-22 23:00:00 24.4 4 Sudeste 16 Noroeste 0 -- -- 63
2017-08-22 22:00:00 25.9 6 Nordeste 24 Nordeste 0.6 -- -- 55
2017-08-22 21:00:00 28.3 5 Nordeste 24 Nordeste 0.2 -- -- 46
2017-08-22 20:00:00 28.5 7 Este 27 Este 2.4 -- -- 55
2017-08-22 19:00:00 34.7 11 Este 26 Nordeste 0 -- -- 29
2017-08-22 18:00:00 36.3 11 Este 23 Este 0 -- -- 26
2017-08-22 17:00:00 35.7 4 Nordeste 19 Nordeste 0 -- -- 22
2017-08-22 16:00:00 36.4 5 Este 20 Nordeste 0 -- -- 22
2017-08-22 15:00:00 36.2 5 Nordeste 19 Sudoeste 0 -- -- 22
2017-08-22 14:00:00 34.6 7 Sudoeste 21 Sudeste 0 -- -- 26
2017-08-22 13:00:00 33.4 3 Nordeste 13 Sudeste 0 -- -- 28
2017-08-22 12:00:00 31.3 3 Nordeste 14 Sudeste 0 -- -- 38
2017-08-22 11:00:00 28.3 7 Sudeste 14 Sudeste 0 -- -- 45
2017-08-22 10:00:00 25.1 3 Sudeste 12 Sur 0 -- -- 55
2017-08-22 09:00:00 22.4 5 Sudoeste 14 Sur 0 -- -- 62
2017-08-22 08:00:00 20.7 2 Este 9 Nordeste 0 -- -- 67
2017-08-22 07:00:00 19.3 4 Este 9 Nordeste 0 -- -- 66
2017-08-22 06:00:00 22.1 0 Calma 8 Norte 0 -- -- 60
2017-08-22 05:00:00 22.5 2 Norte 9 Oeste 0 -- -- 60
2017-08-22 04:00:00 23.1 3 Norte 9 Noroeste 0 -- -- 59
2017-08-22 03:00:00 23.9 3 Noroeste 11 Sudeste 0 -- -- 57
2017-08-22 02:00:00 24.4 4 Noroeste 17 Sudeste 0 -- -- 54
2017-08-22 01:00:00 22.1 3 Este 6 Sudeste 0 -- -- 45
2017-08-22 00:00:00 23.6 3 Este 9 Nordeste 0 -- -- 39